createdAt,value
2024-03-16T00:02:15.120Z,2.50
2024-03-16T00:04:43.632Z,2.25
2024-03-16T00:07:10.025Z,1.95
2024-03-16T00:09:35.972Z,2.38
2024-03-16T00:12:01.872Z,2.42
2024-03-16T00:14:27.728Z,1.92
2024-03-16T00:16:53.623Z,2.00
2024-03-16T00:19:19.477Z,1.90
2024-03-16T00:21:46.028Z,2.60
2024-03-16T00:24:11.891Z,1.90
2024-03-16T00:26:37.773Z,1.90
2024-03-16T00:29:07.818Z,2.42
2024-03-16T00:31:34.290Z,2.40
2024-03-16T00:34:00.136Z,2.58
2024-03-16T00:36:26.147Z,2.05
2024-03-16T00:38:52.009Z,2.17
2024-03-16T00:41:17.981Z,2.33
2024-03-16T00:43:46.847Z,2.63
2024-03-16T00:46:13.588Z,2.53
2024-03-16T00:48:39.452Z,2.90
2024-03-16T00:51:05.827Z,2.45
2024-03-16T00:53:31.712Z,2.47
2024-03-16T00:55:57.528Z,2.25
2024-03-16T00:58:23.415Z,1.75
2024-03-16T01:00:50.020Z,1.90
2024-03-16T01:03:15.944Z,2.00
2024-03-16T01:05:41.807Z,1.85
2024-03-16T01:08:07.656Z,2.10
2024-03-16T01:10:33.491Z,1.63
2024-03-16T01:12:59.365Z,1.60
2024-03-16T01:15:25.237Z,2.00
2024-03-16T01:17:51.183Z,1.92
2024-03-16T01:20:17.157Z,1.80
2024-03-16T01:22:42.999Z,1.63
2024-03-16T01:25:09.223Z,2.03
2024-03-16T01:27:35.345Z,1.85
2024-03-16T01:30:02.844Z,2.22
2024-03-16T01:32:28.874Z,1.88
2024-03-16T01:34:54.822Z,2.00
2024-03-16T01:37:20.740Z,1.75
2024-03-16T01:39:46.683Z,1.80
2024-03-16T01:42:13.515Z,2.20
2024-03-16T01:44:39.659Z,1.80
2024-03-16T01:47:10.082Z,1.88
2024-03-16T01:49:35.986Z,1.67
2024-03-16T01:52:02.032Z,1.80
2024-03-16T01:54:27.964Z,1.63
2024-03-16T01:56:53.840Z,1.85
2024-03-16T01:59:20.009Z,2.08
2024-03-16T02:01:45.924Z,1.75
2024-03-16T02:04:11.943Z,1.67
2024-03-16T02:06:37.962Z,2.00
2024-03-16T02:09:04.232Z,2.00
2024-03-16T02:11:30.133Z,2.03
2024-03-16T02:13:56.202Z,1.80
2024-03-16T02:16:22.052Z,1.80
2024-03-16T02:18:47.988Z,1.80
2024-03-16T02:21:14.585Z,1.98
2024-03-16T02:23:40.436Z,1.60
2024-03-16T02:26:08.100Z,1.48
2024-03-16T02:28:33.956Z,1.35
2024-03-16T02:30:59.979Z,1.67
2024-03-16T02:33:27.964Z,1.45
2024-03-16T02:35:54.797Z,1.55
2024-03-16T02:38:21.444Z,1.55
2024-03-16T02:40:47.351Z,1.00
2024-03-16T02:43:13.326Z,1.00
2024-03-16T02:45:39.142Z,1.35
2024-03-16T02:48:05.709Z,1.30
2024-03-16T02:50:32.738Z,0.93
2024-03-16T02:53:01.813Z,1.15
2024-03-16T02:55:27.686Z,1.10
2024-03-16T02:57:54.499Z,1.30
2024-03-16T03:00:22.189Z,1.05
2024-03-16T03:02:48.078Z,1.20
2024-03-16T03:05:19.982Z,0.90
2024-03-16T03:07:45.935Z,1.15
2024-03-16T03:10:12.926Z,1.23
2024-03-16T03:12:39.500Z,1.35
2024-03-16T03:15:07.226Z,1.13
2024-03-16T03:17:33.266Z,0.90
2024-03-16T03:19:59.237Z,1.10
2024-03-16T03:22:25.164Z,1.13
2024-03-16T03:24:51.036Z,1.17
2024-03-16T03:27:17.043Z,1.10
2024-03-16T03:29:42.842Z,1.25
2024-03-16T03:32:08.813Z,1.10
2024-03-16T03:34:34.790Z,1.02
2024-03-16T03:37:00.732Z,1.45
2024-03-16T03:39:26.771Z,0.88
2024-03-16T03:41:53.184Z,1.30
2024-03-16T03:44:22.203Z,0.85
2024-03-16T03:46:51.764Z,1.30
2024-03-16T03:49:29.233Z,0.90
2024-03-16T03:51:56.069Z,1.25
2024-03-16T03:54:22.086Z,1.05
2024-03-16T03:56:47.906Z,1.20
2024-03-16T03:59:14.351Z,1.10
2024-03-16T04:01:40.277Z,1.40
2024-03-16T04:04:06.169Z,1.10
2024-03-16T04:06:32.136Z,1.08
2024-03-16T04:08:57.972Z,1.10
2024-03-16T04:11:24.809Z,1.10
2024-03-16T04:13:50.667Z,1.27
2024-03-16T04:16:16.589Z,1.15
2024-03-16T04:18:42.520Z,0.98
2024-03-16T04:21:08.472Z,1.08
2024-03-16T04:23:34.534Z,1.15
2024-03-16T04:26:00.398Z,1.20
2024-03-16T04:28:26.428Z,0.88
2024-03-16T04:30:52.534Z,1.02
2024-03-16T04:33:18.440Z,1.13
2024-03-16T04:35:45.706Z,1.17
2024-03-16T04:38:12.257Z,1.33
2024-03-16T04:40:38.920Z,1.30
2024-03-16T04:43:04.997Z,1.67
2024-03-16T04:45:31.276Z,1.05
2024-03-16T04:47:57.215Z,1.00
2024-03-16T04:50:24.720Z,1.00
2024-03-16T04:52:50.686Z,1.05
2024-03-16T04:55:16.681Z,1.10
2024-03-16T04:57:42.573Z,1.20
2024-03-16T05:00:12.334Z,1.27
2024-03-16T05:02:38.700Z,1.80
2024-03-16T05:05:06.865Z,1.88
2024-03-16T05:07:32.909Z,1.20
2024-03-16T05:09:58.906Z,1.48
2024-03-16T05:12:25.647Z,1.48
2024-03-16T05:14:51.507Z,1.70
2024-03-16T05:17:17.437Z,1.85
2024-03-16T05:19:43.493Z,2.13
2024-03-16T05:22:09.489Z,2.80
2024-03-16T05:24:38.523Z,1.73
2024-03-16T05:27:05.512Z,1.50
2024-03-16T05:29:31.652Z,1.38
2024-03-16T05:31:59.085Z,1.25
2024-03-16T05:34:25.035Z,1.45
2024-03-16T05:36:51.155Z,1.15
2024-03-16T05:39:17.130Z,1.38
2024-03-16T05:41:44.192Z,3.03
2024-03-16T05:44:10.879Z,1.98
2024-03-16T05:46:36.883Z,1.70
2024-03-16T05:49:02.937Z,1.00
2024-03-16T05:51:29.718Z,1.25
2024-03-16T05:54:05.221Z,1.55
2024-03-16T05:56:32.899Z,1.10
2024-03-16T05:58:59.247Z,1.00
2024-03-16T06:01:26.151Z,1.95
2024-03-16T06:03:52.345Z,1.10
2024-03-16T06:06:18.226Z,1.13
2024-03-16T06:08:44.819Z,1.20
2024-03-16T06:11:10.739Z,1.00
2024-03-16T06:13:36.933Z,1.27
2024-03-16T06:16:02.977Z,1.40
2024-03-16T06:18:28.963Z,1.25
2024-03-16T06:20:54.950Z,1.40
2024-03-16T06:23:20.858Z,0.95
2024-03-16T06:25:51.334Z,1.10
2024-03-16T06:28:17.970Z,0.80
2024-03-16T06:30:51.125Z,1.92
2024-03-16T06:33:37.620Z,1.17
2024-03-16T06:36:03.785Z,0.90
2024-03-16T06:38:30.342Z,1.25
2024-03-16T06:40:56.529Z,0.90
2024-03-16T06:43:22.470Z,1.38
2024-03-16T06:45:48.388Z,1.35
2024-03-16T06:48:16.804Z,1.20
2024-03-16T06:50:44.813Z,1.17
2024-03-16T06:53:11.658Z,1.15
2024-03-16T06:55:37.963Z,0.90
2024-03-16T06:58:05.288Z,0.93
2024-03-16T07:00:31.976Z,0.95
2024-03-16T07:02:57.890Z,1.17
2024-03-16T07:05:23.928Z,1.65
2024-03-16T07:07:49.868Z,1.20
2024-03-16T07:10:16.037Z,0.90
2024-03-16T07:12:42.122Z,1.15
2024-03-16T07:15:08.684Z,1.02
2024-03-16T07:17:34.586Z,1.30
2024-03-16T07:20:00.599Z,1.30
2024-03-16T07:22:28.051Z,1.52
2024-03-16T07:24:55.384Z,0.85
2024-03-16T07:27:21.334Z,1.20
2024-03-16T07:29:47.995Z,0.90
2024-03-16T07:32:23.471Z,0.90
2024-03-16T07:34:50.556Z,1.00
2024-03-16T07:37:24.588Z,1.75
2024-03-16T07:39:51.399Z,1.83
2024-03-16T07:42:17.606Z,1.75
2024-03-16T07:44:43.904Z,1.30
2024-03-16T07:47:10.903Z,1.65
2024-03-16T07:49:37.228Z,1.13
2024-03-16T07:52:04.449Z,1.20
2024-03-16T07:54:40.039Z,1.15
2024-03-16T07:57:06.064Z,1.25
2024-03-16T07:59:32.201Z,0.93
2024-03-16T08:01:59.397Z,0.98
2024-03-16T08:04:28.325Z,1.00
2024-03-16T08:06:55.037Z,1.08
2024-03-16T08:09:23.865Z,0.85
2024-03-16T08:11:50.116Z,1.05
2024-03-16T08:14:16.139Z,1.10
2024-03-16T08:16:42.141Z,1.20
2024-03-16T08:19:08.266Z,0.98
2024-03-16T08:21:35.108Z,0.70
2024-03-16T08:24:16.366Z,1.13
2024-03-16T08:26:43.742Z,1.67
2024-03-16T08:29:10.536Z,1.17
2024-03-16T08:31:40.875Z,1.23
2024-03-16T08:34:14.856Z,1.17
2024-03-16T08:36:41.363Z,1.40
2024-03-16T08:39:09.378Z,1.63
2024-03-16T08:41:37.020Z,1.15
2024-03-16T08:44:04.917Z,0.77
2024-03-16T08:46:31.415Z,1.17
2024-03-16T08:48:57.921Z,2.08
2024-03-16T08:51:25.277Z,1.00
2024-03-16T08:53:51.364Z,1.40
2024-03-16T08:56:17.486Z,1.27
2024-03-16T08:58:46.091Z,1.00
2024-03-16T09:01:13.685Z,1.20
2024-03-16T09:03:41.055Z,1.10
2024-03-16T09:06:08.105Z,1.10
2024-03-16T09:08:34.070Z,1.10
2024-03-16T09:11:01.197Z,1.23
2024-03-16T09:13:27.178Z,1.00
2024-03-16T09:15:53.465Z,1.40
2024-03-16T09:18:19.554Z,1.20
2024-03-16T09:20:46.818Z,1.33
2024-03-16T09:23:21.782Z,1.08
2024-03-16T09:25:54.519Z,1.60
2024-03-16T09:28:20.913Z,1.15
2024-03-16T09:30:47.395Z,1.10
2024-03-16T09:33:14.235Z,1.23
2024-03-16T09:35:41.050Z,1.30
2024-03-16T09:38:08.164Z,1.17
2024-03-16T09:40:34.988Z,1.20
2024-03-16T09:43:05.449Z,1.30
2024-03-16T09:45:34.922Z,1.50
2024-03-16T09:48:01.214Z,1.88
2024-03-16T09:50:29.649Z,1.27
2024-03-16T09:52:56.067Z,1.13
2024-03-16T09:55:27.720Z,1.75
2024-03-16T09:57:53.992Z,2.03
2024-03-16T10:00:22.133Z,1.95
2024-03-16T10:02:50.707Z,1.88
2024-03-16T10:05:26.940Z,2.00
2024-03-16T10:07:58.099Z,2.03
2024-03-16T10:10:25.100Z,2.60
2024-03-16T10:13:03.379Z,2.00
2024-03-16T10:15:29.472Z,2.55
2024-03-16T10:17:56.866Z,2.13
2024-03-16T10:20:28.296Z,2.45
2024-03-16T10:23:00.767Z,3.13
2024-03-16T10:25:28.723Z,2.95
2024-03-16T10:27:58.072Z,2.95
2024-03-16T10:30:24.157Z,3.25
2024-03-16T10:32:53.458Z,4.03
2024-03-16T10:35:31.522Z,3.20
2024-03-16T10:37:59.005Z,3.53
2024-03-16T10:40:27.533Z,3.03
2024-03-16T10:42:54.253Z,3.08
2024-03-16T10:45:24.933Z,3.30
2024-03-16T10:47:52.086Z,3.80
2024-03-16T10:50:23.077Z,2.83
2024-03-16T10:53:11.773Z,2.75
2024-03-16T10:55:41.752Z,3.08
2024-03-16T10:58:21.423Z,3.92
2024-03-16T11:00:51.084Z,2.97
2024-03-16T11:03:28.545Z,2.90
2024-03-16T11:06:03.208Z,2.72
2024-03-16T11:08:43.589Z,3.00
2024-03-16T11:11:14.282Z,3.38
2024-03-16T11:14:04.086Z,3.55
2024-03-16T11:16:32.544Z,3.38
2024-03-16T11:19:01.218Z,3.88
2024-03-16T11:21:33.260Z,3.92
2024-03-16T11:24:21.572Z,3.90
2024-03-16T11:26:52.773Z,4.03
2024-03-16T11:29:27.501Z,3.25
2024-03-16T11:31:58.406Z,4.55
2024-03-16T11:34:29.892Z,4.65
2024-03-16T11:36:56.847Z,2.85
2024-03-16T11:39:28.656Z,2.80
2024-03-16T11:42:09.317Z,2.65
2024-03-16T11:49:46.985Z,2.55
2024-03-16T11:52:20.681Z,3.10
2024-03-16T11:54:52.846Z,3.83
2024-03-16T11:57:21.765Z,3.85
2024-03-16T11:59:48.829Z,3.58
2024-03-16T12:02:42.123Z,3.45
2024-03-16T12:05:07.411Z,3.53
2024-03-16T12:07:44.918Z,3.78
2024-03-16T12:10:11.639Z,3.38
2024-03-16T12:12:40.314Z,3.35
2024-03-16T12:15:10.748Z,2.63
2024-03-16T12:17:39.981Z,2.17
2024-03-16T12:20:09.339Z,2.70
2024-03-16T12:22:35.510Z,2.45
2024-03-16T12:25:06.221Z,1.88
2024-03-16T12:27:34.337Z,2.05
2024-03-16T12:30:04.545Z,2.47
2024-03-16T12:32:30.446Z,2.20
2024-03-16T12:34:56.649Z,2.28
2024-03-16T12:37:22.724Z,2.20
2024-03-16T12:39:48.658Z,2.00
2024-03-16T12:42:14.809Z,2.60
2024-03-16T12:44:41.210Z,2.67
2024-03-16T12:47:07.515Z,3.47
2024-03-16T12:49:33.641Z,3.40
2024-03-16T12:51:59.961Z,3.33
2024-03-16T12:54:26.314Z,2.28
2024-03-16T12:56:52.444Z,2.88
2024-03-16T12:59:21.090Z,2.85
2024-03-16T13:01:47.922Z,4.15
2024-03-16T13:04:14.019Z,3.88
2024-03-16T13:06:40.654Z,4.18
2024-03-16T13:09:14.328Z,3.53
2024-03-16T13:11:42.839Z,3.58
2024-03-16T13:14:10.902Z,3.30
2024-03-16T13:16:40.472Z,2.50
2024-03-16T13:19:14.887Z,2.42
2024-03-16T13:21:42.685Z,3.30
2024-03-16T13:25:11.485Z,3.17
2024-03-16T13:27:39.449Z,3.33
2024-03-16T13:30:06.243Z,2.92
2024-03-16T13:32:34.440Z,1.77
2024-03-16T13:35:00.721Z,2.10
2024-03-16T13:37:27.280Z,3.33
2024-03-16T13:39:54.467Z,2.28
2024-03-16T13:42:30.510Z,2.60
2024-03-16T13:44:59.812Z,2.70
2024-03-16T13:47:36.887Z,2.75
2024-03-16T13:50:08.880Z,2.40
2024-03-16T13:52:36.792Z,3.42
2024-03-16T13:55:22.010Z,2.83
2024-03-16T13:57:48.683Z,2.95
2024-03-16T14:00:19.703Z,2.20
2024-03-16T14:02:46.529Z,2.47
2024-03-16T14:05:12.626Z,2.05
2024-03-16T14:07:41.099Z,2.08
2024-03-16T14:10:09.281Z,2.10
2024-03-16T14:12:39.536Z,2.22
2024-03-16T14:15:10.424Z,2.30
2024-03-16T14:17:42.426Z,2.60
2024-03-16T14:20:22.071Z,2.22
2024-03-16T14:23:45.533Z,2.15
2024-03-16T14:26:14.652Z,2.13
2024-03-16T14:28:41.672Z,2.30
2024-03-16T14:31:10.655Z,2.22
2024-03-16T14:33:39.038Z,2.20
2024-03-16T14:36:06.630Z,2.17
2024-03-16T14:38:34.907Z,2.50
2024-03-16T14:41:01.261Z,2.50
2024-03-16T14:43:30.257Z,1.65
2024-03-16T14:45:56.554Z,1.80
2024-03-16T14:48:23.376Z,2.10
2024-03-16T14:50:49.709Z,1.92
2024-03-16T14:53:53.972Z,2.08
2024-03-16T14:56:20.761Z,1.58
2024-03-16T14:58:50.068Z,1.48
2024-03-16T15:01:21.391Z,1.58
2024-03-16T15:03:47.626Z,2.08
2024-03-16T15:06:13.627Z,1.65
2024-03-16T15:08:51.105Z,1.33
2024-03-16T15:11:17.559Z,1.50
2024-03-16T15:13:43.627Z,1.20
2024-03-16T15:16:12.062Z,1.15
2024-03-16T15:18:39.008Z,1.38
2024-03-16T15:21:08.984Z,1.33
2024-03-16T15:23:35.046Z,1.10
2024-03-16T15:26:28.525Z,1.00
2024-03-16T15:28:56.024Z,1.20
2024-03-16T15:31:29.327Z,1.10
2024-03-16T15:33:56.861Z,1.48
2024-03-16T15:36:24.034Z,1.10
2024-03-16T15:38:50.214Z,1.23
2024-03-16T15:41:17.807Z,1.77
2024-03-16T15:43:48.834Z,1.17
2024-03-16T15:48:46.644Z,1.00
2024-03-16T15:54:15.187Z,1.75
2024-03-16T15:56:56.826Z,1.10
2024-03-16T16:01:51.088Z,1.08
2024-03-16T16:04:22.651Z,1.60
2024-03-16T16:06:49.286Z,1.30
2024-03-16T16:09:15.945Z,0.90
2024-03-16T16:11:42.056Z,1.13
2024-03-16T16:14:10.402Z,0.98
2024-03-16T16:16:37.463Z,1.40
2024-03-16T16:19:06.674Z,1.52
2024-03-16T16:21:32.835Z,1.90
2024-03-16T16:27:21.394Z,1.20
2024-03-16T16:29:47.888Z,1.60
2024-03-16T16:32:15.329Z,1.27
2024-03-16T16:34:45.191Z,1.10
2024-03-16T16:37:14.128Z,1.20
2024-03-16T16:39:43.614Z,1.23
2024-03-16T16:42:11.262Z,1.90
2024-03-16T16:44:45.119Z,1.20
2024-03-16T16:47:14.695Z,1.92
2024-03-16T16:49:41.668Z,1.25
2024-03-16T16:52:08.039Z,1.00
2024-03-16T16:54:35.394Z,1.42
2024-03-16T16:57:02.325Z,1.27
2024-03-16T16:59:29.117Z,1.50
2024-03-16T17:01:55.054Z,1.33
2024-03-16T17:04:25.135Z,1.20
2024-03-16T17:06:51.341Z,1.35
2024-03-16T17:09:20.989Z,2.15
2024-03-16T17:11:48.821Z,2.40
2024-03-16T17:14:14.916Z,1.50
2024-03-16T17:16:41.412Z,1.17
2024-03-16T17:19:08.697Z,1.55
2024-03-16T17:21:35.942Z,1.60
2024-03-16T17:24:13.380Z,1.50
2024-03-16T17:26:39.990Z,1.40
2024-03-16T17:29:18.037Z,1.52
2024-03-16T17:31:48.275Z,2.45
2024-03-16T17:34:15.550Z,1.88
2024-03-16T17:36:41.726Z,2.72
2024-03-16T17:39:14.237Z,1.30
2024-03-16T17:41:44.221Z,1.73
2024-03-16T17:44:11.619Z,2.28
2024-03-16T17:46:39.289Z,4.70
2024-03-16T17:49:06.064Z,3.72
2024-03-16T17:51:37.407Z,2.55
2024-03-16T17:54:20.100Z,2.80
2024-03-16T17:56:46.348Z,2.55
2024-03-16T17:59:13.717Z,2.88
2024-03-16T18:01:39.695Z,3.75
2024-03-16T18:04:06.144Z,3.78
2024-03-16T18:06:34.610Z,5.13
2024-03-16T18:09:04.798Z,4.35
2024-03-16T18:11:31.719Z,2.90
2024-03-16T18:14:00.532Z,3.15
2024-03-16T18:16:30.850Z,2.22
2024-03-16T18:19:00.835Z,1.88
2024-03-16T18:21:35.635Z,1.75
2024-03-16T18:24:32.712Z,2.00
2024-03-16T18:27:02.931Z,1.63
2024-03-16T18:29:30.451Z,1.75
2024-03-16T18:31:57.663Z,1.98
2024-03-16T18:34:24.893Z,1.67
2024-03-16T18:36:51.373Z,2.00
2024-03-16T18:39:18.968Z,2.13
2024-03-16T18:41:48.868Z,2.53
2024-03-16T18:44:18.905Z,2.97
2024-03-16T18:46:47.977Z,1.65
2024-03-16T18:49:17.091Z,1.55
2024-03-16T18:52:02.982Z,2.60
2024-03-16T18:54:47.670Z,2.53
2024-03-16T18:57:22.605Z,1.65
2024-03-16T18:59:48.677Z,1.38
2024-03-16T19:02:17.112Z,1.80
2024-03-16T19:04:49.949Z,1.90
2024-03-16T19:07:16.373Z,2.15
2024-03-16T19:09:44.153Z,1.83
2024-03-16T19:12:10.841Z,1.40
2024-03-16T19:14:36.968Z,1.63
2024-03-16T19:17:07.061Z,1.50
2024-03-16T19:19:33.010Z,1.85
2024-03-16T19:22:02.085Z,1.73
2024-03-16T19:24:30.522Z,1.73
2024-03-16T19:26:56.777Z,1.92
2024-03-16T19:29:32.635Z,1.67
2024-03-16T19:32:03.817Z,2.22
2024-03-16T19:34:31.638Z,2.38
2024-03-16T19:36:58.946Z,1.90
2024-03-16T19:39:24.897Z,1.65
2024-03-16T19:41:51.234Z,2.50
2024-03-16T19:44:17.246Z,1.73
2024-03-16T19:46:43.951Z,1.65
2024-03-16T19:49:13.607Z,1.77
2024-03-16T19:51:40.386Z,2.28
2024-03-16T19:54:55.742Z,2.03
2024-03-16T19:57:26.971Z,1.92
2024-03-16T19:59:52.936Z,2.10
2024-03-16T20:02:20.055Z,1.98
2024-03-16T20:04:50.424Z,2.00
2024-03-16T20:07:18.047Z,1.88
2024-03-16T20:09:44.283Z,1.98
2024-03-16T20:12:12.310Z,1.98
2024-03-16T20:14:42.580Z,2.35
2024-03-16T20:17:13.072Z,2.90
2024-03-16T20:19:39.683Z,2.47
2024-03-16T20:22:07.957Z,2.53
2024-03-16T20:24:40.601Z,2.00
2024-03-16T20:27:11.157Z,1.70
2024-03-16T20:29:38.299Z,2.20
2024-03-16T20:32:04.862Z,2.17
2024-03-16T20:34:31.188Z,2.00
2024-03-16T20:36:58.161Z,2.22
2024-03-16T20:39:24.058Z,2.30
2024-03-16T20:41:50.016Z,2.22
2024-03-16T20:44:18.230Z,1.77
2024-03-16T20:46:44.441Z,3.13
2024-03-16T20:49:10.513Z,1.80
2024-03-16T20:51:37.915Z,1.92
2024-03-16T20:54:12.909Z,1.58
2024-03-16T20:56:39.490Z,2.63
2024-03-16T20:59:06.645Z,2.95
2024-03-16T21:01:32.871Z,1.67
2024-03-16T21:03:59.292Z,2.10
2024-03-16T21:06:26.202Z,2.33
2024-03-16T21:08:52.066Z,2.35
2024-03-16T21:11:24.771Z,1.80
2024-03-16T21:13:56.135Z,3.05
2024-03-16T21:16:26.588Z,2.72
2024-03-16T21:18:52.504Z,1.70
2024-03-16T21:21:18.541Z,1.70
2024-03-16T21:23:50.489Z,2.17
2024-03-16T21:26:16.519Z,2.58
2024-03-16T21:28:42.653Z,2.55
2024-03-16T21:31:08.577Z,2.85
2024-03-16T21:33:40.078Z,2.20
2024-03-16T21:36:06.408Z,2.05
2024-03-16T21:38:32.307Z,1.70
2024-03-16T21:40:58.206Z,1.98
2024-03-16T21:43:24.191Z,2.72
2024-03-16T21:45:50.356Z,2.00
2024-03-16T21:48:16.351Z,2.50
2024-03-16T21:50:42.695Z,1.77
2024-03-16T21:53:39.689Z,2.55
2024-03-16T21:56:06.000Z,2.70
2024-03-16T21:58:31.972Z,3.40
2024-03-16T22:00:57.894Z,3.03
2024-03-16T22:03:24.001Z,1.80
2024-03-16T22:05:49.932Z,3.70
2024-03-16T22:08:18.139Z,2.08
2024-03-16T22:10:45.801Z,1.95
2024-03-16T22:13:11.912Z,1.77
2024-03-16T22:15:37.788Z,3.47
2024-03-16T22:18:04.784Z,2.60
2024-03-16T22:20:30.752Z,2.38
2024-03-16T22:23:01.007Z,1.92
2024-03-16T22:25:26.991Z,3.53
2024-03-16T22:27:52.877Z,2.47
2024-03-16T22:30:22.493Z,3.08
2024-03-16T22:32:49.102Z,3.07
2024-03-16T22:35:15.858Z,2.33
2024-03-16T22:37:42.097Z,1.80
2024-03-16T22:40:11.755Z,1.50
2024-03-16T22:42:41.330Z,2.35
2024-03-16T22:45:08.055Z,1.52
2024-03-16T22:47:35.201Z,2.38
2024-03-16T22:50:02.506Z,2.78
2024-03-16T22:52:28.604Z,2.80
2024-03-16T22:54:57.082Z,2.13
2024-03-16T22:57:23.945Z,1.70
2024-03-16T22:59:49.943Z,2.85
2024-03-16T23:02:16.203Z,3.03
2024-03-16T23:04:42.349Z,2.22
2024-03-16T23:07:10.541Z,1.85
2024-03-16T23:09:36.816Z,2.03
2024-03-16T23:12:02.814Z,2.13
2024-03-16T23:14:29.313Z,2.70
2024-03-16T23:16:55.953Z,2.47
2024-03-16T23:19:22.489Z,2.92
2024-03-16T23:21:49.942Z,1.45
2024-03-16T23:24:22.830Z,1.98
2024-03-16T23:26:48.740Z,3.38
2024-03-16T23:29:19.724Z,1.55
2024-03-16T23:31:45.615Z,1.83
2024-03-16T23:34:12.162Z,2.10
2024-03-16T23:36:38.529Z,3.65
2024-03-16T23:39:06.767Z,2.30
2024-03-16T23:41:33.705Z,2.22
2024-03-16T23:43:59.552Z,2.30
2024-03-16T23:46:25.425Z,2.10
2024-03-16T23:48:51.252Z,2.60
2024-03-16T23:51:17.433Z,1.63
2024-03-16T23:53:46.601Z,2.58
2024-03-16T23:56:13.395Z,2.80
2024-03-16T23:58:39.506Z,2.75
